Time;durP1;ratioP1;P1;durP2;ratioP2;P2;SDS_P1;SDS_P2;PMS_P1;PMS_P2;Temp;Humidity;BMP_temperature;BMP_pressure;BME280_temperature;BME280_humidity;BME280_pressure;Samples;Min_cycle;Max_cycle;Signal;HPM_P1;HPM_P2
2023/05/24 00:02:22;;;;;;;;;;;12.00;99.90;;;;;;7335956;19;109943;-68
2023/05/24 00:04:51;;;;;;;;;;;12.00;99.90;;;;;;7334267;19;111189;-68
2023/05/24 00:07:19;;;;;;;;;;;11.90;99.90;;;;;;7334656;19;109477;-69
2023/05/24 00:09:46;;;;;;;;;;;11.90;99.90;;;;;;7336504;19;110430;-67
2023/05/24 00:12:13;;;;;;;;;;;11.80;99.90;;;;;;7329324;19;111260;-66
2023/05/24 00:14:40;;;;;;;;;;;11.70;99.90;;;;;;7337641;19;109881;-70
2023/05/24 00:17:07;;;;;;;;;;;11.70;99.90;;;;;;7332591;19;109568;-66
2023/05/24 00:19:37;;;;;;;;;;;11.60;99.90;;;;;;7336098;19;111201;-67
2023/05/24 00:22:04;;;;;;;;;;;11.60;99.90;;;;;;7333026;19;110249;-67
2023/05/24 00:24:31;;;;;;;;;;;11.60;99.90;;;;;;7330498;19;109744;-67
2023/05/24 00:26:58;;;;;;;;;;;11.60;99.90;;;;;;7339443;19;110518;-66
2023/05/24 00:29:25;;;;;;;;;;;11.70;99.90;;;;;;7333433;19;114710;-66
2023/05/24 00:31:52;;;;;;;;;;;11.70;99.90;;;;;;7333807;19;111409;-67
2023/05/24 00:34:19;;;;;;;;;;;11.70;99.90;;;;;;7333773;19;109341;-66
2023/05/24 00:36:46;;;;;;;;;;;11.60;99.90;;;;;;7330613;19;110914;-66
2023/05/24 00:39:13;;;;;;;;;;;11.50;99.90;;;;;;7336911;19;112207;-67
2023/05/24 00:41:40;;;;;;;;;;;11.50;99.90;;;;;;7334758;19;109818;-67
2023/05/24 00:44:09;;;;;;;;;;;11.50;99.90;;;;;;7332538;19;110362;-67
2023/05/24 00:46:36;;;;;;;;;;;11.40;99.90;;;;;;7329660;19;111247;-66
2023/05/24 00:49:04;;;;;;;;;;;11.40;99.90;;;;;;7338386;19;111291;-66
2023/05/24 00:51:32;;;;;;;;;;;11.40;99.90;;;;;;7329059;19;111959;-67
2023/05/24 00:53:59;;;;;;;;;;;11.30;99.90;;;;;;7330926;19;109935;-66
2023/05/24 00:56:27;;;;;;;;;;;11.40;99.90;;;;;;7336034;19;110389;-67
2023/05/24 00:58:54;;;;;;;;;;;11.40;99.90;;;;;;7333572;19;110168;-67
2023/05/24 01:01:24;;;;;;;;;;;11.30;99.90;;;;;;7329870;19;113220;-69
2023/05/24 01:03:52;;;;;;;;;;;11.30;99.90;;;;;;7335515;19;109552;-66
2023/05/24 01:06:20;;;;;;;;;;;11.30;99.90;;;;;;7327591;19;110659;-67
2023/05/24 01:09:00;;;;;;;;;;;11.30;99.90;;;;;;7336008;19;109582;-67
2023/05/24 01:11:33;;;;;;;;;;;11.20;99.90;;;;;;7339225;19;111277;-67
2023/05/24 01:14:13;;;;;;;;;;;11.20;99.90;;;;;;7337309;19;109757;-74
2023/05/24 01:16:46;;;;;;;;;;;11.20;99.90;;;;;;7333773;19;111390;-75
2023/05/24 01:19:29;;;;;;;;;;;11.10;99.90;;;;;;7329527;19;110117;-73
2023/05/24 01:22:15;;;;;;;;;;;11.10;99.90;;;;;;7327672;19;111572;-68
2023/05/24 01:25:05;;;;;;;;;;;11.00;99.90;;;;;;7334167;19;110302;-67
2023/05/24 01:27:33;;;;;;;;;;;11.00;99.90;;;;;;7330597;19;111591;-67
2023/05/24 01:30:04;;;;;;;;;;;10.90;99.90;;;;;;7331970;19;118692;-66
2023/05/24 01:32:32;;;;;;;;;;;10.90;99.90;;;;;;7336294;19;110658;-67
2023/05/24 01:34:59;;;;;;;;;;;10.90;99.90;;;;;;7331539;19;110275;-66
2023/05/24 01:37:27;;;;;;;;;;;10.80;99.90;;;;;;7328311;19;109567;-67
2023/05/24 01:39:54;;;;;;;;;;;10.80;99.90;;;;;;7330641;19;110079;-66
2023/05/24 01:42:43;;;;;;;;;;;10.70;99.90;;;;;;7331000;19;110408;-67
2023/05/24 01:45:10;;;;;;;;;;;10.70;99.90;;;;;;7329129;19;110408;-67
2023/05/24 01:48:00;;;;;;;;;;;10.70;99.90;;;;;;7328625;19;110563;-66
2023/05/24 01:50:30;;;;;;;;;;;10.60;99.90;;;;;;7331659;19;110270;-66
2023/05/24 01:53:01;;;;;;;;;;;10.60;99.90;;;;;;7332167;19;109761;-66
2023/05/24 01:55:29;;;;;;;;;;;10.60;99.90;;;;;;7337835;19;110936;-66
2023/05/24 01:57:59;;;;;;;;;;;10.50;99.90;;;;;;7332919;19;110801;-65
2023/05/24 02:00:27;;;;;;;;;;;10.40;99.90;;;;;;7327797;19;110282;-66
2023/05/24 02:02:55;;;;;;;;;;;10.40;99.90;;;;;;7328628;19;110015;-66
2023/05/24 02:05:22;;;;;;;;;;;10.40;99.90;;;;;;7328441;19;110630;-66
2023/05/24 02:07:49;;;;;;;;;;;10.30;99.90;;;;;;7333746;19;111613;-66
2023/05/24 02:10:16;;;;;;;;;;;10.30;99.90;;;;;;7329306;19;110045;-66
2023/05/24 02:12:43;;;;;;;;;;;10.30;99.90;;;;;;7334626;19;110995;-66
2023/05/24 02:15:13;;;;;;;;;;;10.20;99.90;;;;;;7336190;19;110645;-66
2023/05/24 02:17:41;;;;;;;;;;;10.20;99.90;;;;;;7344776;19;109749;-66
2023/05/24 02:20:09;;;;;;;;;;;10.10;99.90;;;;;;7333411;19;110370;-66
2023/05/24 02:22:36;;;;;;;;;;;10.10;99.90;;;;;;7339295;19;110387;-66
2023/05/24 02:25:04;;;;;;;;;;;10.00;99.90;;;;;;7336517;19;111209;-66
2023/05/24 02:27:31;;;;;;;;;;;10.00;99.90;;;;;;7336607;19;110439;-66
2023/05/24 02:29:58;;;;;;;;;;;9.90;99.90;;;;;;7332888;19;109771;-66
2023/05/24 02:32:25;;;;;;;;;;;9.90;99.90;;;;;;7337916;19;110503;-66
2023/05/24 02:34:52;;;;;;;;;;;9.80;99.90;;;;;;7334848;19;110780;-66
2023/05/24 02:37:19;;;;;;;;;;;9.80;99.90;;;;;;7335801;19;109630;-66
2023/05/24 02:39:46;;;;;;;;;;;9.80;99.90;;;;;;7339185;19;111113;-66
2023/05/24 02:42:13;;;;;;;;;;;9.70;99.90;;;;;;7337932;19;109474;-66
2023/05/24 02:44:41;;;;;;;;;;;9.70;99.90;;;;;;7338105;19;112873;-66
2023/05/24 02:47:08;;;;;;;;;;;9.70;99.90;;;;;;7333439;19;110543;-66
2023/05/24 02:49:35;;;;;;;;;;;9.70;99.90;;;;;;7335947;19;111188;-66
2023/05/24 02:52:03;;;;;;;;;;;9.60;99.90;;;;;;7334920;19;110017;-65
2023/05/24 02:54:30;;;;;;;;;;;9.60;99.90;;;;;;7334548;19;110143;-66
2023/05/24 02:56:57;;;;;;;;;;;9.50;99.90;;;;;;7337303;19;109437;-66
2023/05/24 02:59:24;;;;;;;;;;;9.40;99.90;;;;;;7330053;19;111625;-66
2023/05/24 03:01:51;;;;;;;;;;;9.40;99.90;;;;;;7340831;19;111132;-66
2023/05/24 03:04:18;;;;;;;;;;;9.30;99.90;;;;;;7323091;19;111829;-67
2023/05/24 03:06:46;;;;;;;;;;;9.20;99.90;;;;;;7327640;19;111257;-67
2023/05/24 03:09:15;;;;;;;;;;;9.20;99.90;;;;;;7339221;19;109400;-67
2023/05/24 03:11:42;;;;;;;;;;;9.20;99.90;;;;;;7339266;19;111775;-66
2023/05/24 03:14:09;;;;;;;;;;;9.20;99.90;;;;;;7334802;19;110220;-66
2023/05/24 03:16:36;;;;;;;;;;;9.20;99.90;;;;;;7335561;19;109572;-66
2023/05/24 03:19:04;;;;;;;;;;;9.20;99.90;;;;;;7337640;19;111770;-67
2023/05/24 03:21:35;;;;;;;;;;;9.10;99.90;;;;;;7335294;19;110186;-66
2023/05/24 03:24:02;;;;;;;;;;;9.10;99.90;;;;;;7338474;19;109346;-66
2023/05/24 03:26:30;;;;;;;;;;;9.10;99.90;;;;;;7334361;19;110155;-66
2023/05/24 03:28:57;;;;;;;;;;;9.10;99.90;;;;;;7335221;19;109545;-66
2023/05/24 03:31:25;;;;;;;;;;;9.10;99.90;;;;;;7332490;19;109507;-69
2023/05/24 03:33:52;;;;;;;;;;;9.00;99.90;;;;;;7334304;19;112451;-66
2023/05/24 03:36:20;;;;;;;;;;;9.00;99.90;;;;;;7331124;19;110520;-66
2023/05/24 03:38:47;;;;;;;;;;;9.00;99.90;;;;;;7333367;19;111126;-66
2023/05/24 03:41:14;;;;;;;;;;;8.90;99.90;;;;;;7336541;19;111173;-66
2023/05/24 03:43:41;;;;;;;;;;;8.90;99.90;;;;;;7337574;19;109721;-66
2023/05/24 03:46:08;;;;;;;;;;;8.90;99.90;;;;;;7333149;19;110664;-66
2023/05/24 03:48:35;;;;;;;;;;;8.80;99.90;;;;;;7331372;19;110541;-66
2023/05/24 03:51:02;;;;;;;;;;;8.80;99.90;;;;;;7335245;19;110166;-66
2023/05/24 03:53:31;;;;;;;;;;;8.80;99.90;;;;;;7333556;19;110844;-66
2023/05/24 03:55:58;;;;;;;;;;;8.80;99.90;;;;;;7334778;19;109742;-66
2023/05/24 03:58:25;;;;;;;;;;;8.80;99.90;;;;;;7332291;19;110359;-66
2023/05/24 04:00:52;;;;;;;;;;;8.80;99.90;;;;;;7333091;19;110695;-66
2023/05/24 04:03:20;;;;;;;;;;;8.80;99.90;;;;;;7328365;19;111894;-66
2023/05/24 04:05:47;;;;;;;;;;;8.70;99.90;;;;;;7339266;19;110057;-66
2023/05/24 04:08:15;;;;;;;;;;;8.70;99.90;;;;;;7333684;19;109788;-66
2023/05/24 04:10:42;;;;;;;;;;;8.70;99.90;;;;;;7334276;19;111166;-66
2023/05/24 04:13:10;;;;;;;;;;;8.70;99.90;;;;;;7332180;19;110898;-66
2023/05/24 04:15:37;;;;;;;;;;;8.70;99.90;;;;;;7334979;19;109720;-66
2023/05/24 04:18:04;;;;;;;;;;;8.70;99.90;;;;;;7332714;19;110657;-66
2023/05/24 04:20:31;;;;;;;;;;;8.70;99.90;;;;;;7330257;19;111110;-66
2023/05/24 04:22:59;;;;;;;;;;;8.70;99.90;;;;;;7335561;19;109433;-66
2023/05/24 04:25:26;;;;;;;;;;;8.70;99.90;;;;;;7330112;19;109517;-66
2023/05/24 04:27:54;;;;;;;;;;;8.80;99.90;;;;;;7339869;19;110679;-66
2023/05/24 04:30:22;;;;;;;;;;;8.80;99.90;;;;;;7332630;19;109613;-67
2023/05/24 04:32:49;;;;;;;;;;;8.80;99.90;;;;;;7334729;19;110159;-67
2023/05/24 04:35:16;;;;;;;;;;;8.80;99.90;;;;;;7334062;19;110179;-66
2023/05/24 04:37:43;;;;;;;;;;;8.90;99.90;;;;;;7331773;19;110090;-66
2023/05/24 04:40:11;;;;;;;;;;;8.90;99.90;;;;;;7328646;19;114484;-67
2023/05/24 04:42:38;;;;;;;;;;;8.90;99.90;;;;;;7331043;19;109807;-67
2023/05/24 04:45:05;;;;;;;;;;;8.90;99.90;;;;;;7333326;19;109746;-66
2023/05/24 04:47:33;;;;;;;;;;;8.90;99.90;;;;;;7331504;19;110925;-67
2023/05/24 04:50:00;;;;;;;;;;;8.90;99.90;;;;;;7343393;19;109539;-67
2023/05/24 04:52:27;;;;;;;;;;;9.00;99.90;;;;;;7333092;19;111122;-68
2023/05/24 04:54:54;;;;;;;;;;;9.00;99.90;;;;;;7332577;19;110740;-68
2023/05/24 04:57:21;;;;;;;;;;;9.10;99.90;;;;;;7330436;19;109917;-66
2023/05/24 04:59:48;;;;;;;;;;;9.20;99.90;;;;;;7332486;19;110393;-66
2023/05/24 05:02:16;;;;;;;;;;;9.20;99.90;;;;;;7332046;19;111877;-66
2023/05/24 05:04:43;;;;;;;;;;;9.20;99.90;;;;;;7331468;19;109709;-66
2023/05/24 05:07:10;;;;;;;;;;;9.30;99.90;;;;;;7324629;19;112468;-66
2023/05/24 05:09:37;;;;;;;;;;;9.40;99.90;;;;;;7336825;19;109746;-66
2023/05/24 05:12:04;;;;;;;;;;;9.40;99.90;;;;;;7333061;19;110282;-66
2023/05/24 05:14:31;;;;;;;;;;;9.50;99.90;;;;;;7329455;19;109921;-65
2023/05/24 05:16:58;;;;;;;;;;;9.60;99.90;;;;;;7331777;19;110099;-66
2023/05/24 05:19:25;;;;;;;;;;;9.70;99.90;;;;;;7328379;19;116250;-66
2023/05/24 05:21:52;;;;;;;;;;;9.80;99.90;;;;;;7331492;19;110092;-66
2023/05/24 05:24:20;;;;;;;;;;;9.80;99.90;;;;;;7330269;19;112041;-66
2023/05/24 05:26:47;;;;;;;;;;;10.00;99.90;;;;;;7330633;19;111192;-66
2023/05/24 05:29:14;;;;;;;;;;;10.10;99.90;;;;;;7330632;19;109636;-66
2023/05/24 05:31:42;;;;;;;;;;;10.20;99.90;;;;;;7336911;19;110647;-70
2023/05/24 05:34:09;;;;;;;;;;;10.30;99.90;;;;;;7329229;19;109912;-75
2023/05/24 05:36:39;;;;;;;;;;;10.40;99.90;;;;;;7331781;19;110025;-75
2023/05/24 05:39:09;;;;;;;;;;;10.40;99.90;;;;;;7327536;19;110211;-74
2023/05/24 05:41:42;;;;;;;;;;;10.50;99.90;;;;;;7332723;19;109770;-75
2023/05/24 05:44:11;;;;;;;;;;;10.60;99.90;;;;;;7332256;19;110537;-74
2023/05/24 05:46:39;;;;;;;;;;;10.80;99.90;;;;;;7334169;19;110712;-67
2023/05/24 05:49:06;;;;;;;;;;;10.80;99.90;;;;;;7341030;19;109737;-68
2023/05/24 05:51:33;;;;;;;;;;;10.90;99.90;;;;;;7340796;19;109549;-67
2023/05/24 05:54:00;;;;;;;;;;;11.00;99.90;;;;;;7337098;19;110307;-68
2023/05/24 05:56:27;;;;;;;;;;;11.10;99.90;;;;;;7339497;19;110123;-68
2023/05/24 05:58:55;;;;;;;;;;;11.20;99.90;;;;;;7338329;19;110418;-66
2023/05/24 06:01:22;;;;;;;;;;;11.40;99.90;;;;;;7336440;19;111606;-71
2023/05/24 06:03:50;;;;;;;;;;;11.40;99.90;;;;;;7339985;19;110290;-64
2023/05/24 06:06:17;;;;;;;;;;;11.50;99.90;;;;;;7336054;19;110544;-64
2023/05/24 06:08:44;;;;;;;;;;;11.50;99.90;;;;;;7339961;19;109375;-64
2023/05/24 06:11:11;;;;;;;;;;;11.60;99.90;;;;;;7337528;19;109425;-64
2023/05/24 06:13:38;;;;;;;;;;;11.70;99.90;;;;;;7335707;19;110530;-65
2023/05/24 06:16:07;;;;;;;;;;;11.80;99.90;;;;;;7342508;19;111212;-65
2023/05/24 06:18:35;;;;;;;;;;;12.00;99.90;;;;;;7335898;19;110200;-64
2023/05/24 06:21:02;;;;;;;;;;;12.10;99.90;;;;;;7339445;19;109794;-65
2023/05/24 06:23:29;;;;;;;;;;;12.20;99.90;;;;;;7339259;19;109511;-65
2023/05/24 06:25:56;;;;;;;;;;;12.30;99.90;;;;;;7334502;19;112139;-65
2023/05/24 06:28:23;;;;;;;;;;;12.30;99.90;;;;;;7336542;19;112258;-65
2023/05/24 06:30:50;;;;;;;;;;;12.30;99.90;;;;;;7333899;19;110185;-64
2023/05/24 06:33:18;;;;;;;;;;;12.40;99.90;;;;;;7336945;19;112271;-64
2023/05/24 06:35:45;;;;;;;;;;;12.40;99.90;;;;;;7340420;19;109414;-65
2023/05/24 06:38:12;;;;;;;;;;;12.50;99.90;;;;;;7341020;19;109488;-65
2023/05/24 06:40:39;;;;;;;;;;;12.60;99.90;;;;;;7336785;19;109687;-65
2023/05/24 06:43:06;;;;;;;;;;;12.70;99.90;;;;;;7336854;19;110044;-65
2023/05/24 06:45:33;;;;;;;;;;;12.80;99.90;;;;;;7336173;19;111012;-64
2023/05/24 06:48:00;;;;;;;;;;;13.00;99.90;;;;;;7336559;19;111692;-66
2023/05/24 06:50:28;;;;;;;;;;;13.10;99.90;;;;;;7339071;19;110619;-65
2023/05/24 06:52:55;;;;;;;;;;;13.10;99.90;;;;;;7335015;19;110743;-65
2023/05/24 06:55:22;;;;;;;;;;;13.10;99.90;;;;;;7335333;19;111045;-64
2023/05/24 06:57:49;;;;;;;;;;;13.20;99.90;;;;;;7336926;19;110500;-65
2023/05/24 07:00:16;;;;;;;;;;;13.20;99.90;;;;;;7339448;19;111197;-65
2023/05/24 07:02:43;;;;;;;;;;;13.30;99.90;;;;;;7338649;19;109703;-65
2023/05/24 07:05:11;;;;;;;;;;;13.30;99.90;;;;;;7335041;19;110226;-65
2023/05/24 07:07:39;;;;;;;;;;;13.30;99.90;;;;;;7334192;19;109555;-65
2023/05/24 07:10:07;;;;;;;;;;;13.40;99.90;;;;;;7336986;19;109956;-65
2023/05/24 07:12:34;;;;;;;;;;;13.40;99.90;;;;;;7336423;19;111710;-65
2023/05/24 07:15:01;;;;;;;;;;;13.50;99.90;;;;;;7336459;19;110275;-65
2023/05/24 07:17:28;;;;;;;;;;;13.50;99.90;;;;;;7338192;19;109568;-65
2023/05/24 07:19:56;;;;;;;;;;;13.60;99.90;;;;;;7330747;19;110761;-65
2023/05/24 07:22:24;;;;;;;;;;;13.70;99.90;;;;;;7343621;19;109532;-65
2023/05/24 07:24:51;;;;;;;;;;;13.70;99.90;;;;;;7335148;19;110274;-65
2023/05/24 07:27:18;;;;;;;;;;;13.80;99.90;;;;;;7333968;19;109744;-65
2023/05/24 07:29:45;;;;;;;;;;;13.90;99.90;;;;;;7336067;19;109860;-65
2023/05/24 07:32:14;;;;;;;;;;;14.00;99.90;;;;;;7335007;19;110692;-65
2023/05/24 07:34:42;;;;;;;;;;;14.00;99.90;;;;;;7332930;19;111372;-65
2023/05/24 07:37:09;;;;;;;;;;;14.00;99.90;;;;;;7333896;19;110407;-65
2023/05/24 07:39:36;;;;;;;;;;;14.00;99.90;;;;;;7333344;19;110773;-65
2023/05/24 07:42:05;;;;;;;;;;;14.00;99.90;;;;;;7339681;19;112219;-65
2023/05/24 07:44:32;;;;;;;;;;;14.10;99.90;;;;;;7332212;19;111267;-65
2023/05/24 07:47:01;;;;;;;;;;;14.30;99.90;;;;;;7336100;19;110863;-65
2023/05/24 07:49:28;;;;;;;;;;;14.50;99.90;;;;;;7335222;19;110621;-65
2023/05/24 07:51:58;;;;;;;;;;;14.70;99.90;;;;;;7338604;19;110200;-66
2023/05/24 07:54:25;;;;;;;;;;;14.80;99.90;;;;;;7335694;19;110534;-65
2023/05/24 07:56:52;;;;;;;;;;;14.90;99.90;;;;;;7336239;19;109860;-65
2023/05/24 07:59:20;;;;;;;;;;;15.00;99.90;;;;;;7333046;19;110534;-66
2023/05/24 08:01:47;;;;;;;;;;;15.20;99.90;;;;;;7334847;19;109752;-65
2023/05/24 08:04:15;;;;;;;;;;;15.20;99.90;;;;;;7339008;19;110872;-66
2023/05/24 08:06:42;;;;;;;;;;;15.30;99.90;;;;;;7331143;19;109630;-66
2023/05/24 08:09:09;;;;;;;;;;;15.40;99.90;;;;;;7330495;19;112861;-65
2023/05/24 08:11:36;;;;;;;;;;;15.50;99.90;;;;;;7330330;19;110144;-65
2023/05/24 08:14:03;;;;;;;;;;;15.70;99.90;;;;;;7335319;19;109793;-66
2023/05/24 08:16:30;;;;;;;;;;;15.80;99.90;;;;;;7336790;19;110401;-66
2023/05/24 08:18:58;;;;;;;;;;;15.80;99.90;;;;;;7334375;19;110137;-66
2023/05/24 08:21:26;;;;;;;;;;;15.70;99.90;;;;;;7331708;19;109619;-66
2023/05/24 08:23:53;;;;;;;;;;;15.80;99.90;;;;;;7328716;19;112139;-66
2023/05/24 08:26:21;;;;;;;;;;;15.90;99.90;;;;;;7339501;19;114719;-61
2023/05/24 08:28:48;;;;;;;;;;;16.10;99.90;;;;;;7330323;19;110481;-61
2023/05/24 08:31:15;;;;;;;;;;;16.20;99.90;;;;;;7331447;19;110561;-62
2023/05/24 08:33:43;;;;;;;;;;;16.40;99.90;;;;;;7330081;19;110914;-61
2023/05/24 08:36:10;;;;;;;;;;;16.60;99.90;;;;;;7330044;19;112060;-62
2023/05/24 08:38:37;;;;;;;;;;;16.70;99.90;;;;;;7330713;19;111151;-61
2023/05/24 08:41:06;;;;;;;;;;;16.70;99.90;;;;;;7330158;19;112298;-61
2023/05/24 08:43:34;;;;;;;;;;;16.70;99.90;;;;;;7331411;19;111081;-61
2023/05/24 08:46:02;;;;;;;;;;;16.70;99.90;;;;;;7331587;19;110553;-61
2023/05/24 08:48:29;;;;;;;;;;;16.70;99.90;;;;;;7338163;19;109865;-61
2023/05/24 08:50:57;;;;;;;;;;;16.70;99.90;;;;;;7332546;19;110228;-61
2023/05/24 08:53:25;;;;;;;;;;;16.80;99.90;;;;;;7332401;19;109514;-61
2023/05/24 08:55:53;;;;;;;;;;;16.80;99.90;;;;;;7333982;19;109643;-61
2023/05/24 08:58:20;;;;;;;;;;;16.70;99.90;;;;;;7330466;19;110591;-62
2023/05/24 09:00:47;;;;;;;;;;;16.80;99.90;;;;;;7330086;19;110430;-61
2023/05/24 09:03:15;;;;;;;;;;;16.70;99.90;;;;;;7331037;19;109761;-61
2023/05/24 09:05:43;;;;;;;;;;;16.80;99.90;;;;;;7332495;19;110220;-61
2023/05/24 09:08:10;;;;;;;;;;;17.00;99.90;;;;;;7330838;19;109611;-61
2023/05/24 09:10:37;;;;;;;;;;;17.00;99.90;;;;;;7339302;19;110303;-62
2023/05/24 09:13:21;;;;;;;;;;;17.10;99.90;;;;;;7332893;19;110302;-62
2023/05/24 09:15:49;;;;;;;;;;;17.20;99.90;;;;;;7334380;19;109739;-61
2023/05/24 09:18:16;;;;;;;;;;;17.30;99.90;;;;;;7331409;19;111705;-62
2023/05/24 09:20:44;;;;;;;;;;;17.40;99.90;;;;;;7331678;19;111590;-63
2023/05/24 09:23:12;;;;;;;;;;;17.40;99.90;;;;;;7330174;19;110266;-62
2023/05/24 09:25:42;;;;;;;;;;;17.40;99.90;;;;;;7331101;19;110377;-61
2023/05/24 09:28:12;;;;;;;;;;;17.40;99.90;;;;;;7330271;19;110054;-61
2023/05/24 09:30:42;;;;;;;;;;;17.50;99.90;;;;;;7329908;19;109872;-61
2023/05/24 09:33:10;;;;;;;;;;;17.50;99.90;;;;;;7334676;19;110272;-61
2023/05/24 09:35:40;;;;;;;;;;;17.60;99.90;;;;;;7331464;19;110471;-61
2023/05/24 09:38:16;;;;;;;;;;;17.50;99.90;;;;;;7329664;19;111869;-62
2023/05/24 09:40:44;;;;;;;;;;;17.50;99.90;;;;;;7333198;19;110123;-61
2023/05/24 09:43:11;;;;;;;;;;;17.50;99.90;;;;;;7332836;19;110561;-84
2023/05/24 09:45:45;;;;;;;;;;;17.70;99.90;;;;;;7334776;19;111135;-83
2023/05/24 09:48:14;;;;;;;;;;;17.80;99.90;;;;;;7333520;19;111232;-83
2023/05/24 09:50:41;;;;;;;;;;;17.90;99.90;;;;;;7335329;19;110356;-83
2023/05/24 09:53:09;;;;;;;;;;;18.00;99.90;;;;;;7335041;19;114326;-83
2023/05/24 09:55:36;;;;;;;;;;;18.00;99.90;;;;;;7334342;19;112255;-83
2023/05/24 09:58:04;;;;;;;;;;;18.10;99.90;;;;;;7329277;19;111114;-83
2023/05/24 10:07:03;;;;;;;;;;;18.30;99.90;;;;;;7328686;19;109521;-83
2023/05/24 10:09:32;;;;;;;;;;;18.30;99.90;;;;;;7332498;19;110546;-83
2023/05/24 10:12:07;;;;;;;;;;;18.30;99.90;;;;;;7328484;19;110090;-87
2023/05/24 10:14:35;;;;;;;;;;;18.20;99.90;;;;;;7330191;19;111502;-86
2023/05/24 10:17:06;;;;;;;;;;;18.10;99.90;;;;;;7335184;19;109432;-85
2023/05/24 10:19:34;;;;;;;;;;;18.20;99.90;;;;;;7331216;19;114119;-84
2023/05/24 10:22:05;;;;;;;;;;;18.30;99.90;;;;;;7330410;19;110743;-86
2023/05/24 10:24:38;;;;;;;;;;;18.30;99.90;;;;;;7335523;19;110647;-84
2023/05/24 10:27:08;;;;;;;;;;;18.40;99.90;;;;;;7328732;19;112541;-85
2023/05/24 10:29:51;;;;;;;;;;;18.50;99.90;;;;;;7334564;19;109835;-85
2023/05/24 10:32:19;;;;;;;;;;;18.70;99.90;;;;;;7330804;19;110030;-84
2023/05/24 10:34:46;;;;;;;;;;;19.00;99.90;;;;;;7341519;19;111215;-85
2023/05/24 10:37:15;;;;;;;;;;;18.70;99.50;;;;;;7339291;19;109529;-87
2023/05/24 10:39:43;;;;;;;;;;;18.60;99.90;;;;;;7343279;19;111691;-86
2023/05/24 10:42:12;;;;;;;;;;;18.70;99.90;;;;;;7341990;19;110529;-83
2023/05/24 10:44:39;;;;;;;;;;;18.90;99.90;;;;;;7332324;19;110139;-87
2023/05/24 10:47:09;;;;;;;;;;;19.00;99.90;;;;;;7338595;19;111152;-87
2023/05/24 10:49:38;;;;;;;;;;;19.00;99.30;;;;;;7341280;19;109772;-84
2023/05/24 10:52:09;;;;;;;;;;;18.90;99.60;;;;;;7338537;19;112303;-86
2023/05/24 10:54:37;;;;;;;;;;;18.90;99.20;;;;;;7333234;19;111276;-85
2023/05/24 10:57:21;;;;;;;;;;;18.90;99.90;;;;;;7337040;19;112155;-85
2023/05/24 10:59:48;;;;;;;;;;;19.00;99.60;;;;;;7336850;19;111473;-85
2023/05/24 11:02:18;;;;;;;;;;;19.10;99.90;;;;;;7344387;19;112382;-85
2023/05/24 11:04:47;;;;;;;;;;;19.10;99.00;;;;;;7338668;19;110760;-84
2023/05/24 11:07:18;;;;;;;;;;;19.00;99.60;;;;;;7335473;19;111406;-84
2023/05/24 11:09:46;;;;;;;;;;;19.10;99.90;;;;;;7335902;19;109485;-84
2023/05/24 11:12:18;;;;;;;;;;;19.20;99.00;;;;;;7336592;19;113259;-85
2023/05/24 11:14:49;;;;;;;;;;;19.20;99.40;;;;;;7338434;19;111590;-84
2023/05/24 11:17:20;;;;;;;;;;;19.30;98.40;;;;;;7340039;19;109689;-84
2023/05/24 11:19:49;;;;;;;;;;;19.30;99.00;;;;;;7339283;19;110157;-84
2023/05/24 11:22:16;;;;;;;;;;;19.30;98.40;;;;;;7338749;19;111049;-85
2023/05/24 11:24:43;;;;;;;;;;;19.10;97.40;;;;;;7342116;19;111712;-84
2023/05/24 11:27:11;;;;;;;;;;;19.00;98.80;;;;;;7336906;19;111185;-87
2023/05/24 11:29:43;;;;;;;;;;;18.90;97.80;;;;;;7345348;19;110423;-84
2023/05/24 11:32:19;;;;;;;;;;;18.80;98.20;;;;;;7340569;19;110530;-82
2023/05/24 11:34:47;;;;;;;;;;;18.60;98.60;;;;;;7334069;19;111259;-84
2023/05/24 11:37:14;;;;;;;;;;;18.80;99.10;;;;;;7339565;19;109679;-84
2023/05/24 11:39:48;;;;;;;;;;;18.90;98.20;;;;;;7338811;19;111749;-83
2023/05/24 11:42:15;;;;;;;;;;;19.10;99.40;;;;;;7335649;19;111202;-86
2023/05/24 11:44:42;;;;;;;;;;;19.30;99.20;;;;;;7327603;19;112491;-86
2023/05/24 11:47:11;;;;;;;;;;;19.30;98.70;;;;;;7339953;19;111803;-85
2023/05/24 11:49:39;;;;;;;;;;;19.40;98.60;;;;;;7336440;19;109395;-86
2023/05/24 11:52:07;;;;;;;;;;;19.30;98.50;;;;;;7339462;19;110834;-88
2023/05/24 11:54:36;;;;;;;;;;;19.20;99.80;;;;;;7336303;19;111205;-86
2023/05/24 11:57:04;;;;;;;;;;;19.30;99.80;;;;;;7340125;19;110733;-86
2023/05/24 11:59:31;;;;;;;;;;;19.50;98.50;;;;;;7340291;19;110113;-86
2023/05/24 12:02:02;;;;;;;;;;;19.40;98.00;;;;;;7339502;19;111202;-86
2023/05/24 12:04:30;;;;;;;;;;;19.60;98.80;;;;;;7337664;19;109680;-85
2023/05/24 12:06:57;;;;;;;;;;;19.90;97.40;;;;;;7342635;19;110012;-86
2023/05/24 12:09:25;;;;;;;;;;;20.00;97.90;;;;;;7338211;19;110023;-87
2023/05/24 12:11:52;;;;;;;;;;;20.00;97.30;;;;;;7337969;19;110368;-86
2023/05/24 12:14:22;;;;;;;;;;;19.90;97.40;;;;;;7340347;19;110207;-86
2023/05/24 12:16:49;;;;;;;;;;;19.80;96.10;;;;;;7338398;19;109498;-86
2023/05/24 12:19:20;;;;;;;;;;;19.70;97.10;;;;;;7339690;19;112860;-86
2023/05/24 12:22:00;;;;;;;;;;;19.50;96.50;;;;;;7336498;19;114529;-84
2023/05/24 12:24:30;;;;;;;;;;;19.10;97.00;;;;;;7337790;19;110301;-85
2023/05/24 12:27:00;;;;;;;;;;;19.00;98.00;;;;;;7336937;19;110724;-86
2023/05/24 12:29:38;;;;;;;;;;;19.10;97.70;;;;;;7347040;19;111041;-86
2023/05/24 12:32:11;;;;;;;;;;;18.80;97.50;;;;;;7337523;19;110021;-86
2023/05/24 12:34:41;;;;;;;;;;;18.50;98.20;;;;;;7339061;19;114299;-86
2023/05/24 12:37:09;;;;;;;;;;;18.60;98.10;;;;;;7335646;19;110684;-86
2023/05/24 12:39:36;;;;;;;;;;;18.70;98.50;;;;;;7338762;19;109552;-87
2023/05/24 12:42:03;;;;;;;;;;;18.70;98.30;;;;;;7338413;19;111653;-86
2023/05/24 12:44:33;;;;;;;;;;;18.80;98.00;;;;;;7359825;19;109144;-87
2023/05/24 12:47:01;;;;;;;;;;;18.80;97.80;;;;;;7368448;19;111856;-86
2023/05/24 12:49:28;;;;;;;;;;;18.70;98.30;;;;;;7368867;19;110055;-85
2023/05/24 12:51:56;;;;;;;;;;;18.80;98.10;;;;;;7374527;19;109322;-86
2023/05/24 12:54:24;;;;;;;;;;;18.80;98.10;;;;;;7371170;19;113549;-87
2023/05/24 12:56:52;;;;;;;;;;;18.80;97.70;;;;;;7366118;19;109416;-85
2023/05/24 12:59:22;;;;;;;;;;;18.70;97.60;;;;;;7367359;19;110852;-87
2023/05/24 13:01:50;;;;;;;;;;;18.80;97.90;;;;;;7365995;19;111564;-85
2023/05/24 13:04:19;;;;;;;;;;;18.50;97.70;;;;;;7365822;19;109052;-86
2023/05/24 13:06:47;;;;;;;;;;;18.30;98.30;;;;;;7368895;19;110024;-86
2023/05/24 13:09:17;;;;;;;;;;;18.50;98.20;;;;;;7365663;19;109977;-86
2023/05/24 13:11:45;;;;;;;;;;;18.50;98.40;;;;;;7371915;19;109916;-87
2023/05/24 13:14:14;;;;;;;;;;;18.50;98.00;;;;;;7351081;19;109703;-86
2023/05/24 13:16:41;;;;;;;;;;;18.60;99.00;;;;;;7336710;19;109732;-86
2023/05/24 13:19:09;;;;;;;;;;;18.50;97.60;;;;;;7337822;19;110524;-85
2023/05/24 13:21:36;;;;;;;;;;;18.50;97.90;;;;;;7340371;19;111057;-86
2023/05/24 13:24:05;;;;;;;;;;;18.40;98.10;;;;;;7335377;19;110640;-86
2023/05/24 13:26:36;;;;;;;;;;;18.70;98.30;;;;;;7335008;19;110476;-85
2023/05/24 13:29:04;;;;;;;;;;;18.60;98.10;;;;;;7337172;19;110549;-84
2023/05/24 13:31:36;;;;;;;;;;;18.60;98.30;;;;;;7336247;19;109704;-85
2023/05/24 13:34:04;;;;;;;;;;;18.40;98.40;;;;;;7335209;19;112791;-86
2023/05/24 13:36:31;;;;;;;;;;;18.20;98.70;;;;;;7337888;19;114383;-85
2023/05/24 13:38:59;;;;;;;;;;;18.40;99.40;;;;;;7334958;19;110197;-86
2023/05/24 13:41:30;;;;;;;;;;;18.50;99.40;;;;;;7331900;19;110543;-85
2023/05/24 13:43:57;;;;;;;;;;;18.50;98.70;;;;;;7333087;19;110222;-86
2023/05/24 13:46:24;;;;;;;;;;;18.70;98.70;;;;;;7331516;19;109779;-86
2023/05/24 13:48:51;;;;;;;;;;;18.70;98.50;;;;;;7334425;19;111442;-85
2023/05/24 13:51:19;;;;;;;;;;;18.70;99.00;;;;;;7334641;19;109752;-84
2023/05/24 13:53:47;;;;;;;;;;;18.90;99.00;;;;;;7334948;19;110179;-87
2023/05/24 13:56:14;;;;;;;;;;;19.10;98.50;;;;;;7335600;19;111575;-84
2023/05/24 13:58:42;;;;;;;;;;;19.20;97.60;;;;;;7340624;19;109567;-86
2023/05/24 14:01:09;;;;;;;;;;;19.30;98.30;;;;;;7335594;19;110474;-84
2023/05/24 14:03:39;;;;;;;;;;;19.40;98.10;;;;;;7334067;19;110089;-85
2023/05/24 14:06:06;;;;;;;;;;;19.40;97.50;;;;;;7338447;19;110044;-85
2023/05/24 14:08:34;;;;;;;;;;;19.50;98.00;;;;;;7341016;19;110778;-86
2023/05/24 14:11:01;;;;;;;;;;;19.50;97.20;;;;;;7340570;19;111254;-86
2023/05/24 14:13:28;;;;;;;;;;;19.40;97.40;;;;;;7339787;19;111248;-86
2023/05/24 14:15:58;;;;;;;;;;;19.40;97.40;;;;;;7339664;19;113153;-85
2023/05/24 14:18:25;;;;;;;;;;;19.30;96.80;;;;;;7347174;19;110554;-85
2023/05/24 14:20:53;;;;;;;;;;;19.20;97.70;;;;;;7342574;19;111530;-86